sensor_id;sensor_type;location;lat;lon;timestamp;temperature;humidity
51837;DHT22;38941;53.254;6.600;2024-02-26T00:01:41;2.80;99.90
51837;DHT22;38941;53.254;6.600;2024-02-26T00:03:44;2.90;99.90
51837;DHT22;38941;53.254;6.600;2024-02-26T00:05:46;2.80;99.90
51837;DHT22;38941;53.254;6.600;2024-02-26T00:07:46;2.90;99.90
51837;DHT22;38941;53.254;6.600;2024-02-26T00:09:47;2.80;99.90
51837;DHT22;38941;53.254;6.600;2024-02-26T00:11:48;2.80;99.90
51837;DHT22;38941;53.254;6.600;2024-02-26T00:13:49;3.80;99.90
51837;DHT22;38941;53.254;6.600;2024-02-26T00:15:49;3.60;99.90
51837;DHT22;38941;53.254;6.600;2024-02-26T00:17:50;2.80;99.90
51837;DHT22;38941;53.254;6.600;2024-02-26T00:19:51;2.80;99.90
51837;DHT22;38941;53.254;6.600;2024-02-26T00:21:52;2.80;99.90
51837;DHT22;38941;53.254;6.600;2024-02-26T00:23:57;2.80;99.90
51837;DHT22;38941;53.254;6.600;2024-02-26T00:26:00;2.90;99.90
51837;DHT22;38941;53.254;6.600;2024-02-26T00:28:00;2.70;99.90
51837;DHT22;38941;53.254;6.600;2024-02-26T00:30:01;3.20;99.90
51837;DHT22;38941;53.254;6.600;2024-02-26T00:32:03;2.70;99.90
51837;DHT22;38941;53.254;6.600;2024-02-26T00:34:04;2.70;99.90
51837;DHT22;38941;53.254;6.600;2024-02-26T00:36:06;2.70;99.90
51837;DHT22;38941;53.254;6.600;2024-02-26T00:38:06;2.60;99.90
51837;DHT22;38941;53.254;6.600;2024-02-26T00:40:07;2.70;99.90
51837;DHT22;38941;53.254;6.600;2024-02-26T00:42:09;2.70;99.90
51837;DHT22;38941;53.254;6.600;2024-02-26T00:44:10;2.70;99.90
51837;DHT22;38941;53.254;6.600;2024-02-26T00:46:16;2.60;99.90
51837;DHT22;38941;53.254;6.600;2024-02-26T00:48:18;2.60;99.90
51837;DHT22;38941;53.254;6.600;2024-02-26T00:50:19;2.60;99.90
51837;DHT22;38941;53.254;6.600;2024-02-26T00:52:21;2.60;99.90
51837;DHT22;38941;53.254;6.600;2024-02-26T00:54:22;2.60;99.90
51837;DHT22;38941;53.254;6.600;2024-02-26T00:56:28;2.60;99.90
51837;DHT22;38941;53.254;6.600;2024-02-26T00:58:29;2.60;99.90
51837;DHT22;38941;53.254;6.600;2024-02-26T01:00:32;2.60;99.90
51837;DHT22;38941;53.254;6.600;2024-02-26T01:02:34;2.60;99.90
51837;DHT22;38941;53.254;6.600;2024-02-26T01:04:36;2.60;99.90
51837;DHT22;38941;53.254;6.600;2024-02-26T01:06:38;2.60;99.90
51837;DHT22;38941;53.254;6.600;2024-02-26T01:08:39;3.60;99.90
51837;DHT22;38941;53.254;6.600;2024-02-26T01:10:41;2.80;99.90
51837;DHT22;38941;53.254;6.600;2024-02-26T01:12:43;2.50;99.90
51837;DHT22;38941;53.254;6.600;2024-02-26T01:14:44;2.50;99.90
51837;DHT22;38941;53.254;6.600;2024-02-26T01:16:46;2.50;99.90
51837;DHT22;38941;53.254;6.600;2024-02-26T01:18:47;3.20;99.90
51837;DHT22;38941;53.254;6.600;2024-02-26T01:20:47;3.40;99.90
51837;DHT22;38941;53.254;6.600;2024-02-26T01:22:48;2.50;99.90
51837;DHT22;38941;53.254;6.600;2024-02-26T01:24:49;2.50;99.90
51837;DHT22;38941;53.254;6.600;2024-02-26T01:26:52;2.50;99.90
51837;DHT22;38941;53.254;6.600;2024-02-26T01:28:54;2.50;99.90
51837;DHT22;38941;53.254;6.600;2024-02-26T01:30:56;3.00;99.90
51837;DHT22;38941;53.254;6.600;2024-02-26T01:32:57;2.50;99.90
51837;DHT22;38941;53.254;6.600;2024-02-26T01:34:58;2.50;99.90
51837;DHT22;38941;53.254;6.600;2024-02-26T01:37:05;3.20;99.90
51837;DHT22;38941;53.254;6.600;2024-02-26T01:39:07;3.40;99.90
51837;DHT22;38941;53.254;6.600;2024-02-26T01:41:08;2.40;99.90
51837;DHT22;38941;53.254;6.600;2024-02-26T01:43:08;2.70;99.90
51837;DHT22;38941;53.254;6.600;2024-02-26T01:45:15;2.40;99.90
51837;DHT22;38941;53.254;6.600;2024-02-26T01:47:16;2.40;99.90
51837;DHT22;38941;53.254;6.600;2024-02-26T01:49:19;3.40;99.90
51837;DHT22;38941;53.254;6.600;2024-02-26T01:51:20;2.70;99.90
51837;DHT22;38941;53.254;6.600;2024-02-26T01:53:21;2.90;99.90
51837;DHT22;38941;53.254;6.600;2024-02-26T01:55:28;2.40;99.90
51837;DHT22;38941;53.254;6.600;2024-02-26T01:57:29;2.80;99.90
51837;DHT22;38941;53.254;6.600;2024-02-26T01:59:31;2.40;99.90
51837;DHT22;38941;53.254;6.600;2024-02-26T02:01:33;2.40;99.90
51837;DHT22;38941;53.254;6.600;2024-02-26T02:03:34;2.40;99.90
51837;DHT22;38941;53.254;6.600;2024-02-26T02:05:38;3.10;99.90
51837;DHT22;38941;53.254;6.600;2024-02-26T02:07:44;2.80;99.90
51837;DHT22;38941;53.254;6.600;2024-02-26T02:09:47;2.40;99.90
51837;DHT22;38941;53.254;6.600;2024-02-26T02:11:48;2.60;99.90
51837;DHT22;38941;53.254;6.600;2024-02-26T02:13:49;3.00;99.90
51837;DHT22;38941;53.254;6.600;2024-02-26T02:15:51;2.40;99.90
51837;DHT22;38941;53.254;6.600;2024-02-26T02:17:54;2.40;99.90
51837;DHT22;38941;53.254;6.600;2024-02-26T02:19:56;2.40;99.90
51837;DHT22;38941;53.254;6.600;2024-02-26T02:22:03;3.10;99.90
51837;DHT22;38941;53.254;6.600;2024-02-26T02:24:04;2.70;99.90
51837;DHT22;38941;53.254;6.600;2024-02-26T02:26:12;2.40;99.90
51837;DHT22;38941;53.254;6.600;2024-02-26T02:28:13;3.40;99.90
51837;DHT22;38941;53.254;6.600;2024-02-26T02:30:14;2.40;99.90
51837;DHT22;38941;53.254;6.600;2024-02-26T02:32:19;3.20;99.90
51837;DHT22;38941;53.254;6.600;2024-02-26T02:34:21;2.40;99.90
51837;DHT22;38941;53.254;6.600;2024-02-26T02:36:26;2.50;99.90
51837;DHT22;38941;53.254;6.600;2024-02-26T02:38:26;2.80;99.90
51837;DHT22;38941;53.254;6.600;2024-02-26T02:40:33;2.40;99.90
51837;DHT22;38941;53.254;6.600;2024-02-26T02:42:35;2.40;99.90
51837;DHT22;38941;53.254;6.600;2024-02-26T02:44:36;2.60;99.90
51837;DHT22;38941;53.254;6.600;2024-02-26T02:46:43;2.40;99.90
51837;DHT22;38941;53.254;6.600;2024-02-26T02:48:43;2.80;99.90
51837;DHT22;38941;53.254;6.600;2024-02-26T02:50:47;3.10;99.90
51837;DHT22;38941;53.254;6.600;2024-02-26T02:52:49;2.40;99.90
51837;DHT22;38941;53.254;6.600;2024-02-26T02:54:51;2.40;99.90
51837;DHT22;38941;53.254;6.600;2024-02-26T02:56:54;2.40;99.90
51837;DHT22;38941;53.254;6.600;2024-02-26T02:58:55;2.40;99.90
51837;DHT22;38941;53.254;6.600;2024-02-26T03:00:56;2.40;99.90
51837;DHT22;38941;53.254;6.600;2024-02-26T03:02:57;3.10;99.90
51837;DHT22;38941;53.254;6.600;2024-02-26T03:04:59;3.20;99.90
51837;DHT22;38941;53.254;6.600;2024-02-26T03:06:59;2.40;99.90
51837;DHT22;38941;53.254;6.600;2024-02-26T03:09:02;3.20;99.90
51837;DHT22;38941;53.254;6.600;2024-02-26T03:11:04;2.40;99.90
51837;DHT22;38941;53.254;6.600;2024-02-26T03:13:12;2.40;99.90
51837;DHT22;38941;53.254;6.600;2024-02-26T03:15:14;2.40;99.90
51837;DHT22;38941;53.254;6.600;2024-02-26T03:17:16;2.40;99.90
51837;DHT22;38941;53.254;6.600;2024-02-26T03:19:17;2.70;99.90
51837;DHT22;38941;53.254;6.600;2024-02-26T03:21:27;2.80;99.90
51837;DHT22;38941;53.254;6.600;2024-02-26T03:23:30;2.40;99.90
51837;DHT22;38941;53.254;6.600;2024-02-26T03:25:32;3.30;99.90
51837;DHT22;38941;53.254;6.600;2024-02-26T03:27:34;2.40;99.90
51837;DHT22;38941;53.254;6.600;2024-02-26T03:29:35;2.40;99.90
51837;DHT22;38941;53.254;6.600;2024-02-26T03:31:36;2.60;99.90
51837;DHT22;38941;53.254;6.600;2024-02-26T03:33:38;2.40;99.90
51837;DHT22;38941;53.254;6.600;2024-02-26T03:35:39;2.90;99.90
51837;DHT22;38941;53.254;6.600;2024-02-26T03:37:41;2.30;99.90
51837;DHT22;38941;53.254;6.600;2024-02-26T03:39:43;2.40;99.90
51837;DHT22;38941;53.254;6.600;2024-02-26T03:41:43;2.40;99.90
51837;DHT22;38941;53.254;6.600;2024-02-26T03:43:45;2.40;99.90
51837;DHT22;38941;53.254;6.600;2024-02-26T03:45:48;2.90;99.90
51837;DHT22;38941;53.254;6.600;2024-02-26T03:47:48;2.40;99.90
51837;DHT22;38941;53.254;6.600;2024-02-26T03:49:49;2.60;99.90
51837;DHT22;38941;53.254;6.600;2024-02-26T03:51:52;2.30;99.90
51837;DHT22;38941;53.254;6.600;2024-02-26T03:53:52;2.30;99.90
51837;DHT22;38941;53.254;6.600;2024-02-26T03:55:55;2.40;99.90
51837;DHT22;38941;53.254;6.600;2024-02-26T03:57:57;2.40;99.90
51837;DHT22;38941;53.254;6.600;2024-02-26T04:00:04;2.80;99.90
51837;DHT22;38941;53.254;6.600;2024-02-26T04:02:07;2.40;99.90
51837;DHT22;38941;53.254;6.600;2024-02-26T04:04:08;2.40;99.90
51837;DHT22;38941;53.254;6.600;2024-02-26T04:06:10;2.40;99.90
51837;DHT22;38941;53.254;6.600;2024-02-26T04:08:13;2.80;99.90
51837;DHT22;38941;53.254;6.600;2024-02-26T04:10:16;2.40;99.90
51837;DHT22;38941;53.254;6.600;2024-02-26T04:12:17;2.50;99.90
51837;DHT22;38941;53.254;6.600;2024-02-26T04:14:19;2.50;99.90
51837;DHT22;38941;53.254;6.600;2024-02-26T04:16:21;2.70;99.90
51837;DHT22;38941;53.254;6.600;2024-02-26T04:18:21;2.50;99.90
51837;DHT22;38941;53.254;6.600;2024-02-26T04:20:23;2.50;99.90
51837;DHT22;38941;53.254;6.600;2024-02-26T04:22:26;2.90;99.90
51837;DHT22;38941;53.254;6.600;2024-02-26T04:24:28;3.60;99.90
51837;DHT22;38941;53.254;6.600;2024-02-26T04:26:30;3.20;99.90
51837;DHT22;38941;53.254;6.600;2024-02-26T04:28:31;2.60;99.90
51837;DHT22;38941;53.254;6.600;2024-02-26T04:30:33;3.50;99.90
51837;DHT22;38941;53.254;6.600;2024-02-26T04:32:34;3.30;99.90
51837;DHT22;38941;53.254;6.600;2024-02-26T04:34:36;2.60;99.90
51837;DHT22;38941;53.254;6.600;2024-02-26T04:36:37;2.60;99.90
51837;DHT22;38941;53.254;6.600;2024-02-26T04:38:37;2.60;99.90
51837;DHT22;38941;53.254;6.600;2024-02-26T04:40:47;3.30;99.90
51837;DHT22;38941;53.254;6.600;2024-02-26T04:42:49;2.70;99.90
51837;DHT22;38941;53.254;6.600;2024-02-26T04:44:51;3.00;99.90
51837;DHT22;38941;53.254;6.600;2024-02-26T04:46:52;3.10;99.90
51837;DHT22;38941;53.254;6.600;2024-02-26T04:48:56;3.00;99.90
51837;DHT22;38941;53.254;6.600;2024-02-26T04:50:58;3.20;99.90
51837;DHT22;38941;53.254;6.600;2024-02-26T04:52:59;2.70;99.90
51837;DHT22;38941;53.254;6.600;2024-02-26T04:55:02;3.80;99.90
51837;DHT22;38941;53.254;6.600;2024-02-26T04:57:05;2.70;99.90
51837;DHT22;38941;53.254;6.600;2024-02-26T04:59:05;3.20;99.90
51837;DHT22;38941;53.254;6.600;2024-02-26T05:01:07;2.80;99.90
51837;DHT22;38941;53.254;6.600;2024-02-26T05:03:10;2.70;99.90
51837;DHT22;38941;53.254;6.600;2024-02-26T05:05:22;2.70;99.90
51837;DHT22;38941;53.254;6.600;2024-02-26T05:07:23;3.50;99.90
51837;DHT22;38941;53.254;6.600;2024-02-26T05:09:25;3.30;99.90
51837;DHT22;38941;53.254;6.600;2024-02-26T05:11:26;2.70;99.90
51837;DHT22;38941;53.254;6.600;2024-02-26T05:13:29;2.70;99.90
51837;DHT22;38941;53.254;6.600;2024-02-26T05:15:33;2.70;99.90
51837;DHT22;38941;53.254;6.600;2024-02-26T05:17:35;2.70;99.90
51837;DHT22;38941;53.254;6.600;2024-02-26T05:19:36;2.70;99.90
51837;DHT22;38941;53.254;6.600;2024-02-26T05:21:38;2.80;99.90
51837;DHT22;38941;53.254;6.600;2024-02-26T05:23:39;2.80;99.90
51837;DHT22;38941;53.254;6.600;2024-02-26T05:25:40;3.10;99.90
51837;DHT22;38941;53.254;6.600;2024-02-26T05:27:43;2.80;99.90
51837;DHT22;38941;53.254;6.600;2024-02-26T05:29:44;2.90;99.90
51837;DHT22;38941;53.254;6.600;2024-02-26T05:31:52;2.80;99.90
51837;DHT22;38941;53.254;6.600;2024-02-26T05:33:55;3.60;99.90
51837;DHT22;38941;53.254;6.600;2024-02-26T05:35:55;2.80;99.90
51837;DHT22;38941;53.254;6.600;2024-02-26T05:37:56;3.70;99.90
51837;DHT22;38941;53.254;6.600;2024-02-26T05:39:57;3.80;99.90
51837;DHT22;38941;53.254;6.600;2024-02-26T05:41:58;2.80;99.90
51837;DHT22;38941;53.254;6.600;2024-02-26T05:44:00;2.90;99.90
51837;DHT22;38941;53.254;6.600;2024-02-26T05:46:02;3.50;99.90
51837;DHT22;38941;53.254;6.600;2024-02-26T05:48:03;2.80;99.90
51837;DHT22;38941;53.254;6.600;2024-02-26T05:50:05;2.80;99.90
51837;DHT22;38941;53.254;6.600;2024-02-26T05:52:07;2.80;99.90
51837;DHT22;38941;53.254;6.600;2024-02-26T05:54:08;3.30;99.90
51837;DHT22;38941;53.254;6.600;2024-02-26T05:56:11;3.60;99.90
51837;DHT22;38941;53.254;6.600;2024-02-26T05:58:12;2.90;99.90
51837;DHT22;38941;53.254;6.600;2024-02-26T06:00:15;3.30;99.90
51837;DHT22;38941;53.254;6.600;2024-02-26T06:02:17;2.80;99.90
51837;DHT22;38941;53.254;6.600;2024-02-26T06:04:18;3.30;99.90
51837;DHT22;38941;53.254;6.600;2024-02-26T06:06:20;2.80;99.90
51837;DHT22;38941;53.254;6.600;2024-02-26T06:08:23;2.90;99.90
51837;DHT22;38941;53.254;6.600;2024-02-26T06:10:24;2.90;99.90
51837;DHT22;38941;53.254;6.600;2024-02-26T06:12:24;3.60;99.90
51837;DHT22;38941;53.254;6.600;2024-02-26T06:14:28;3.00;99.90
51837;DHT22;38941;53.254;6.600;2024-02-26T06:16:28;2.90;99.90
51837;DHT22;38941;53.254;6.600;2024-02-26T06:18:30;3.40;99.90
51837;DHT22;38941;53.254;6.600;2024-02-26T06:20:31;3.40;99.90
51837;DHT22;38941;53.254;6.600;2024-02-26T06:22:32;2.90;99.90
51837;DHT22;38941;53.254;6.600;2024-02-26T06:24:32;2.90;99.90
51837;DHT22;38941;53.254;6.600;2024-02-26T06:26:33;3.90;99.90
51837;DHT22;38941;53.254;6.600;2024-02-26T06:28:34;3.00;99.90
51837;DHT22;38941;53.254;6.600;2024-02-26T06:30:36;2.90;99.90
51837;DHT22;38941;53.254;6.600;2024-02-26T06:32:37;2.90;99.90
51837;DHT22;38941;53.254;6.600;2024-02-26T06:34:38;3.40;99.90
51837;DHT22;38941;53.254;6.600;2024-02-26T06:36:41;3.70;99.90
51837;DHT22;38941;53.254;6.600;2024-02-26T06:38:42;3.60;99.90
51837;DHT22;38941;53.254;6.600;2024-02-26T06:40:43;3.00;99.90
51837;DHT22;38941;53.254;6.600;2024-02-26T06:42:44;3.20;99.90
51837;DHT22;38941;53.254;6.600;2024-02-26T06:44:46;3.00;99.90
51837;DHT22;38941;53.254;6.600;2024-02-26T06:46:48;3.00;99.90
51837;DHT22;38941;53.254;6.600;2024-02-26T06:48:50;3.00;99.90
51837;DHT22;38941;53.254;6.600;2024-02-26T06:50:52;3.10;99.90
51837;DHT22;38941;53.254;6.600;2024-02-26T06:52:53;3.00;99.90
51837;DHT22;38941;53.254;6.600;2024-02-26T06:54:54;3.80;99.90
51837;DHT22;38941;53.254;6.600;2024-02-26T06:56:55;3.40;99.90
51837;DHT22;38941;53.254;6.600;2024-02-26T06:58:55;3.70;99.90
51837;DHT22;38941;53.254;6.600;2024-02-26T07:00:57;3.40;99.90
51837;DHT22;38941;53.254;6.600;2024-02-26T07:02:59;3.30;99.90
51837;DHT22;38941;53.254;6.600;2024-02-26T07:05:00;3.80;99.90
51837;DHT22;38941;53.254;6.600;2024-02-26T07:07:01;4.00;99.90
51837;DHT22;38941;53.254;6.600;2024-02-26T07:09:02;3.10;99.90
51837;DHT22;38941;53.254;6.600;2024-02-26T07:11:06;3.10;99.90
51837;DHT22;38941;53.254;6.600;2024-02-26T07:13:07;3.10;99.90
51837;DHT22;38941;53.254;6.600;2024-02-26T07:15:09;3.10;99.90
51837;DHT22;38941;53.254;6.600;2024-02-26T07:17:11;3.10;99.90
51837;DHT22;38941;53.254;6.600;2024-02-26T07:19:12;3.20;99.90
51837;DHT22;38941;53.254;6.600;2024-02-26T07:21:14;3.80;99.90
51837;DHT22;38941;53.254;6.600;2024-02-26T07:23:14;3.50;99.90
51837;DHT22;38941;53.254;6.600;2024-02-26T07:25:17;3.60;99.90
51837;DHT22;38941;53.254;6.600;2024-02-26T07:27:18;3.80;99.90
51837;DHT22;38941;53.254;6.600;2024-02-26T07:29:20;3.50;99.90
51837;DHT22;38941;53.254;6.600;2024-02-26T07:31:21;3.20;99.90
51837;DHT22;38941;53.254;6.600;2024-02-26T07:33:22;3.20;99.90
51837;DHT22;38941;53.254;6.600;2024-02-26T07:35:23;3.20;99.90
51837;DHT22;38941;53.254;6.600;2024-02-26T07:37:24;3.70;99.90
51837;DHT22;38941;53.254;6.600;2024-02-26T07:39:26;3.70;99.90
51837;DHT22;38941;53.254;6.600;2024-02-26T07:41:27;3.30;99.90
51837;DHT22;38941;53.254;6.600;2024-02-26T07:43:27;3.90;99.90
51837;DHT22;38941;53.254;6.600;2024-02-26T07:45:29;3.40;99.90
51837;DHT22;38941;53.254;6.600;2024-02-26T07:47:30;3.30;99.90
51837;DHT22;38941;53.254;6.600;2024-02-26T07:49:33;3.60;99.90
51837;DHT22;38941;53.254;6.600;2024-02-26T07:51:34;3.70;99.90
51837;DHT22;38941;53.254;6.600;2024-02-26T07:53:35;3.30;99.90
51837;DHT22;38941;53.254;6.600;2024-02-26T07:55:37;3.40;99.90
51837;DHT22;38941;53.254;6.600;2024-02-26T07:57:37;3.40;99.90
51837;DHT22;38941;53.254;6.600;2024-02-26T07:59:41;4.20;99.90
51837;DHT22;38941;53.254;6.600;2024-02-26T08:01:42;3.80;99.90
51837;DHT22;38941;53.254;6.600;2024-02-26T08:03:43;3.50;99.90
51837;DHT22;38941;53.254;6.600;2024-02-26T08:05:44;3.90;99.90
51837;DHT22;38941;53.254;6.600;2024-02-26T08:07:46;3.50;99.90
51837;DHT22;38941;53.254;6.600;2024-02-26T08:09:47;4.00;99.90
51837;DHT22;38941;53.254;6.600;2024-02-26T08:11:49;3.60;99.90
51837;DHT22;38941;53.254;6.600;2024-02-26T08:13:49;3.60;99.90
51837;DHT22;38941;53.254;6.600;2024-02-26T08:15:51;3.70;99.90
51837;DHT22;38941;53.254;6.600;2024-02-26T08:17:52;3.60;99.90
51837;DHT22;38941;53.254;6.600;2024-02-26T08:19:54;3.70;99.90
51837;DHT22;38941;53.254;6.600;2024-02-26T08:21:56;3.80;99.90
51837;DHT22;38941;53.254;6.600;2024-02-26T08:23:57;3.70;99.90
51837;DHT22;38941;53.254;6.600;2024-02-26T08:26:00;3.70;99.90
51837;DHT22;38941;53.254;6.600;2024-02-26T08:28:01;3.80;99.90
51837;DHT22;38941;53.254;6.600;2024-02-26T08:30:01;4.10;99.90
51837;DHT22;38941;53.254;6.600;2024-02-26T08:32:03;4.50;99.90
51837;DHT22;38941;53.254;6.600;2024-02-26T08:34:04;3.80;99.90
51837;DHT22;38941;53.254;6.600;2024-02-26T08:36:05;4.60;99.90
51837;DHT22;38941;53.254;6.600;2024-02-26T08:38:06;3.90;99.90
51837;DHT22;38941;53.254;6.600;2024-02-26T08:40:07;4.30;99.90
51837;DHT22;38941;53.254;6.600;2024-02-26T08:42:08;3.90;99.90
51837;DHT22;38941;53.254;6.600;2024-02-26T08:44:09;4.30;99.90
51837;DHT22;38941;53.254;6.600;2024-02-26T08:46:10;4.60;99.90
51837;DHT22;38941;53.254;6.600;2024-02-26T08:48:12;4.00;99.90
51837;DHT22;38941;53.254;6.600;2024-02-26T08:50:14;4.60;99.90
51837;DHT22;38941;53.254;6.600;2024-02-26T08:52:15;4.10;99.90
51837;DHT22;38941;53.254;6.600;2024-02-26T08:54:16;4.20;99.90
51837;DHT22;38941;53.254;6.600;2024-02-26T08:56:17;4.40;99.90
51837;DHT22;38941;53.254;6.600;2024-02-26T08:58:17;4.20;99.90
51837;DHT22;38941;53.254;6.600;2024-02-26T09:00:18;4.80;99.90
51837;DHT22;38941;53.254;6.600;2024-02-26T09:02:21;4.20;99.90
51837;DHT22;38941;53.254;6.600;2024-02-26T09:04:21;4.20;99.90
51837;DHT22;38941;53.254;6.600;2024-02-26T09:06:23;5.00;99.90
51837;DHT22;38941;53.254;6.600;2024-02-26T09:08:24;4.40;99.90
51837;DHT22;38941;53.254;6.600;2024-02-26T09:10:25;4.70;99.90
51837;DHT22;38941;53.254;6.600;2024-02-26T09:12:26;4.70;99.90
51837;DHT22;38941;53.254;6.600;2024-02-26T09:14:28;5.00;99.90
51837;DHT22;38941;53.254;6.600;2024-02-26T09:16:30;5.00;99.90
51837;DHT22;38941;53.254;6.600;2024-02-26T09:18:30;4.60;99.90
51837;DHT22;38941;53.254;6.600;2024-02-26T09:20:31;4.90;99.90
51837;DHT22;38941;53.254;6.600;2024-02-26T09:22:32;4.50;99.90
51837;DHT22;38941;53.254;6.600;2024-02-26T09:24:41;4.90;99.90
51837;DHT22;38941;53.254;6.600;2024-02-26T09:26:42;5.20;99.90
51837;DHT22;38941;53.254;6.600;2024-02-26T09:28:44;4.60;99.90
51837;DHT22;38941;53.254;6.600;2024-02-26T09:30:45;5.00;99.90
51837;DHT22;38941;53.254;6.600;2024-02-26T09:32:46;4.90;99.90
51837;DHT22;38941;53.254;6.600;2024-02-26T09:34:48;4.60;99.90
51837;DHT22;38941;53.254;6.600;2024-02-26T09:36:49;5.40;99.90
51837;DHT22;38941;53.254;6.600;2024-02-26T09:38:50;5.20;99.90
51837;DHT22;38941;53.254;6.600;2024-02-26T09:40:51;5.10;99.90
51837;DHT22;38941;53.254;6.600;2024-02-26T09:43:01;5.20;99.90
51837;DHT22;38941;53.254;6.600;2024-02-26T09:45:05;4.80;99.90
51837;DHT22;38941;53.254;6.600;2024-02-26T09:47:11;4.80;99.90
51837;DHT22;38941;53.254;6.600;2024-02-26T09:49:12;4.80;99.90
51837;DHT22;38941;53.254;6.600;2024-02-26T09:51:14;4.90;99.90
51837;DHT22;38941;53.254;6.600;2024-02-26T09:53:18;5.40;99.90
51837;DHT22;38941;53.254;6.600;2024-02-26T09:55:23;4.90;99.90
51837;DHT22;38941;53.254;6.600;2024-02-26T09:57:25;5.10;99.90
51837;DHT22;38941;53.254;6.600;2024-02-26T09:59:27;5.40;99.90
51837;DHT22;38941;53.254;6.600;2024-02-26T10:01:28;5.00;99.90
51837;DHT22;38941;53.254;6.600;2024-02-26T10:03:40;5.00;99.90
51837;DHT22;38941;53.254;6.600;2024-02-26T10:05:43;5.70;99.90
51837;DHT22;38941;53.254;6.600;2024-02-26T10:07:45;5.40;99.90
51837;DHT22;38941;53.254;6.600;2024-02-26T10:09:47;5.10;99.90
51837;DHT22;38941;53.254;6.600;2024-02-26T10:11:48;5.20;99.90
51837;DHT22;38941;53.254;6.600;2024-02-26T10:13:51;5.50;99.90
51837;DHT22;38941;53.254;6.600;2024-02-26T10:15:52;5.20;99.90
51837;DHT22;38941;53.254;6.600;2024-02-26T10:17:53;5.20;99.90
51837;DHT22;38941;53.254;6.600;2024-02-26T10:19:54;5.80;99.90
51837;DHT22;38941;53.254;6.600;2024-02-26T10:21:59;5.30;99.90
51837;DHT22;38941;53.254;6.600;2024-02-26T10:23:59;5.40;99.90
51837;DHT22;38941;53.254;6.600;2024-02-26T10:26:00;6.00;99.90
51837;DHT22;38941;53.254;6.600;2024-02-26T10:28:01;5.40;99.90
51837;DHT22;38941;53.254;6.600;2024-02-26T10:30:23;5.40;99.90
51837;DHT22;38941;53.254;6.600;2024-02-26T10:32:27;5.30;99.90
51837;DHT22;38941;53.254;6.600;2024-02-26T10:34:28;5.60;99.90
51837;DHT22;38941;53.254;6.600;2024-02-26T10:36:29;5.90;99.90
51837;DHT22;38941;53.254;6.600;2024-02-26T10:38:31;5.70;99.90
51837;DHT22;38941;53.254;6.600;2024-02-26T10:40:33;5.90;99.90
51837;DHT22;38941;53.254;6.600;2024-02-26T10:42:34;5.40;99.90
51837;DHT22;38941;53.254;6.600;2024-02-26T10:44:35;5.60;99.90
51837;DHT22;38941;53.254;6.600;2024-02-26T10:46:37;5.40;99.90
51837;DHT22;38941;53.254;6.600;2024-02-26T10:48:39;5.70;99.90
51837;DHT22;38941;53.254;6.600;2024-02-26T10:50:40;5.50;99.90
51837;DHT22;38941;53.254;6.600;2024-02-26T10:52:43;6.10;99.90
51837;DHT22;38941;53.254;6.600;2024-02-26T10:54:47;6.00;99.90
51837;DHT22;38941;53.254;6.600;2024-02-26T10:56:50;5.70;99.90
51837;DHT22;38941;53.254;6.600;2024-02-26T10:58:51;6.10;99.90
51837;DHT22;38941;53.254;6.600;2024-02-26T11:00:52;5.60;99.90
51837;DHT22;38941;53.254;6.600;2024-02-26T11:02:56;5.60;99.90
51837;DHT22;38941;53.254;6.600;2024-02-26T11:05:02;5.60;99.90
51837;DHT22;38941;53.254;6.600;2024-02-26T11:07:04;5.70;99.90
51837;DHT22;38941;53.254;6.600;2024-02-26T11:09:06;5.70;99.90
51837;DHT22;38941;53.254;6.600;2024-02-26T11:11:09;5.60;99.90
51837;DHT22;38941;53.254;6.600;2024-02-26T11:13:14;5.70;99.90
51837;DHT22;38941;53.254;6.600;2024-02-26T11:15:17;6.10;99.90
51837;DHT22;38941;53.254;6.600;2024-02-26T11:17:19;5.70;99.90
51837;DHT22;38941;53.254;6.600;2024-02-26T11:19:20;5.70;99.90
51837;DHT22;38941;53.254;6.600;2024-02-26T11:21:23;5.90;99.90
51837;DHT22;38941;53.254;6.600;2024-02-26T11:23:30;6.20;99.90
51837;DHT22;38941;53.254;6.600;2024-02-26T11:25:32;6.00;99.90
51837;DHT22;38941;53.254;6.600;2024-02-26T11:27:39;5.60;99.90
51837;DHT22;38941;53.254;6.600;2024-02-26T11:29:48;5.80;99.90
51837;DHT22;38941;53.254;6.600;2024-02-26T11:31:50;5.70;99.90
51837;DHT22;38941;53.254;6.600;2024-02-26T11:33:51;5.90;99.90
51837;DHT22;38941;53.254;6.600;2024-02-26T11:35:53;6.10;99.90
51837;DHT22;38941;53.254;6.600;2024-02-26T11:37:55;5.70;99.90
51837;DHT22;38941;53.254;6.600;2024-02-26T11:39:59;6.10;99.90
51837;DHT22;38941;53.254;6.600;2024-02-26T11:42:08;5.70;99.90
51837;DHT22;38941;53.254;6.600;2024-02-26T11:44:09;5.70;99.90
51837;DHT22;38941;53.254;6.600;2024-02-26T11:46:31;5.70;99.90
51837;DHT22;38941;53.254;6.600;2024-02-26T11:48:33;5.70;99.90
51837;DHT22;38941;53.254;6.600;2024-02-26T11:50:40;6.00;99.90
51837;DHT22;38941;53.254;6.600;2024-02-26T11:52:41;6.10;99.90
51837;DHT22;38941;53.254;6.600;2024-02-26T11:55:02;6.00;99.90
51837;DHT22;38941;53.254;6.600;2024-02-26T11:57:03;5.80;99.90
51837;DHT22;38941;53.254;6.600;2024-02-26T11:59:10;5.80;99.90
51837;DHT22;38941;53.254;6.600;2024-02-26T12:01:48;6.20;99.90
51837;DHT22;38941;53.254;6.600;2024-02-26T12:03:49;5.80;99.90
51837;DHT22;38941;53.254;6.600;2024-02-26T12:05:49;5.80;99.90
51837;DHT22;38941;53.254;6.600;2024-02-26T12:07:59;6.40;99.90
51837;DHT22;38941;53.254;6.600;2024-02-26T12:10:31;6.20;99.90
51837;DHT22;38941;53.254;6.600;2024-02-26T12:12:37;5.90;99.90
51837;DHT22;38941;53.254;6.600;2024-02-26T12:14:50;6.20;99.90
51837;DHT22;38941;53.254;6.600;2024-02-26T12:16:55;6.40;99.90
51837;DHT22;38941;53.254;6.600;2024-02-26T12:18:57;6.00;99.90
51837;DHT22;38941;53.254;6.600;2024-02-26T12:20:58;6.10;99.90
51837;DHT22;38941;53.254;6.600;2024-02-26T12:23:02;6.10;99.90
51837;DHT22;38941;53.254;6.600;2024-02-26T12:25:06;6.10;99.90
51837;DHT22;38941;53.254;6.600;2024-02-26T12:27:07;6.00;99.90
51837;DHT22;38941;53.254;6.600;2024-02-26T12:29:09;6.50;99.90
51837;DHT22;38941;53.254;6.600;2024-02-26T12:31:11;6.00;99.90
51837;DHT22;38941;53.254;6.600;2024-02-26T12:33:13;6.20;99.90
51837;DHT22;38941;53.254;6.600;2024-02-26T12:35:14;6.40;99.90
51837;DHT22;38941;53.254;6.600;2024-02-26T12:37:16;6.00;99.90
51837;DHT22;38941;53.254;6.600;2024-02-26T12:39:17;6.10;99.90
51837;DHT22;38941;53.254;6.600;2024-02-26T12:41:20;6.00;99.90
51837;DHT22;38941;53.254;6.600;2024-02-26T12:43:22;6.00;99.90
51837;DHT22;38941;53.254;6.600;2024-02-26T12:45:22;6.30;99.90
51837;DHT22;38941;53.254;6.600;2024-02-26T12:47:23;5.90;99.90
51837;DHT22;38941;53.254;6.600;2024-02-26T12:49:25;6.30;99.90
51837;DHT22;38941;53.254;6.600;2024-02-26T12:51:28;6.20;99.90
51837;DHT22;38941;53.254;6.600;2024-02-26T12:53:30;5.90;99.90
51837;DHT22;38941;53.254;6.600;2024-02-26T12:55:31;6.00;99.90
51837;DHT22;38941;53.254;6.600;2024-02-26T12:57:39;6.20;99.90
51837;DHT22;38941;53.254;6.600;2024-02-26T12:59:43;6.00;99.90
51837;DHT22;38941;53.254;6.600;2024-02-26T13:01:45;6.40;99.90
51837;DHT22;38941;53.254;6.600;2024-02-26T13:03:46;5.90;99.90
51837;DHT22;38941;53.254;6.600;2024-02-26T13:05:47;6.30;99.90